sensor_id;sensor_type;location;lat;lon;timestamp;P1;durP1;ratioP1;P2;durP2;ratioP2
5630;SDS011;2837;50.990;7.124;2022-09-21T05:02:18;158.27;;;9.50;;
5630;SDS011;2837;50.990;7.124;2022-09-21T05:04:43;157.43;;;8.63;;
5630;SDS011;2837;50.990;7.124;2022-09-21T05:07:09;158.33;;;8.90;;
5630;SDS011;2837;50.990;7.124;2022-09-21T05:09:34;157.07;;;8.87;;
5630;SDS011;2837;50.990;7.124;2022-09-21T05:12:18;156.63;;;9.03;;
5630;SDS011;2837;50.990;7.124;2022-09-21T05:14:44;157.07;;;9.40;;
5630;SDS011;2837;50.990;7.124;2022-09-21T05:17:10;157.87;;;8.93;;
5630;SDS011;2837;50.990;7.124;2022-09-21T05:19:36;157.90;;;8.97;;
5630;SDS011;2837;50.990;7.124;2022-09-21T05:22:02;158.17;;;9.10;;
5630;SDS011;2837;50.990;7.124;2022-09-21T05:24:27;156.67;;;9.27;;
5630;SDS011;2837;50.990;7.124;2022-09-21T05:26:53;159.67;;;9.20;;
5630;SDS011;2837;50.990;7.124;2022-09-21T05:29:18;159.77;;;9.40;;
5630;SDS011;2837;50.990;7.124;2022-09-21T05:31:46;157.03;;;8.83;;
5630;SDS011;2837;50.990;7.124;2022-09-21T05:39:39;156.60;;;8.67;;
5630;SDS011;2837;50.990;7.124;2022-09-21T05:42:05;156.37;;;8.67;;
5630;SDS011;2837;50.990;7.124;2022-09-21T05:44:31;159.37;;;8.53;;
5630;SDS011;2837;50.990;7.124;2022-09-21T05:55:30;156.47;;;8.60;;
5630;SDS011;2837;50.990;7.124;2022-09-21T06:00:41;157.27;;;8.93;;
5630;SDS011;2837;50.990;7.124;2022-09-21T06:03:26;155.93;;;8.50;;
5630;SDS011;2837;50.990;7.124;2022-09-21T06:05:56;157.40;;;9.10;;
5630;SDS011;2837;50.990;7.124;2022-09-21T06:08:23;157.70;;;8.60;;
5630;SDS011;2837;50.990;7.124;2022-09-21T06:10:49;156.77;;;9.10;;
5630;SDS011;2837;50.990;7.124;2022-09-21T06:13:15;156.17;;;8.47;;
5630;SDS011;2837;50.990;7.124;2022-09-21T06:15:41;156.93;;;8.90;;
5630;SDS011;2837;50.990;7.124;2022-09-21T06:18:07;156.80;;;8.63;;
5630;SDS011;2837;50.990;7.124;2022-09-21T06:20:33;159.47;;;8.80;;
5630;SDS011;2837;50.990;7.124;2022-09-21T06:23:00;157.77;;;9.10;;
5630;SDS011;2837;50.990;7.124;2022-09-21T06:25:26;155.90;;;8.67;;
5630;SDS011;2837;50.990;7.124;2022-09-21T06:27:51;158.47;;;9.30;;
5630;SDS011;2837;50.990;7.124;2022-09-21T06:30:17;157.30;;;8.40;;
5630;SDS011;2837;50.990;7.124;2022-09-21T06:32:42;158.20;;;8.40;;
5630;SDS011;2837;50.990;7.124;2022-09-21T06:35:08;157.77;;;9.20;;
5630;SDS011;2837;50.990;7.124;2022-09-21T06:37:33;156.93;;;8.40;;
5630;SDS011;2837;50.990;7.124;2022-09-21T06:39:59;157.30;;;8.97;;
5630;SDS011;2837;50.990;7.124;2022-09-21T06:42:25;155.80;;;8.83;;
5630;SDS011;2837;50.990;7.124;2022-09-21T06:44:51;156.23;;;9.10;;
5630;SDS011;2837;50.990;7.124;2022-09-21T06:47:17;156.57;;;9.10;;
5630;SDS011;2837;50.990;7.124;2022-09-21T06:49:42;157.17;;;8.73;;
5630;SDS011;2837;50.990;7.124;2022-09-21T06:52:08;156.27;;;8.57;;
5630;SDS011;2837;50.990;7.124;2022-09-21T06:54:33;157.33;;;8.67;;
5630;SDS011;2837;50.990;7.124;2022-09-21T06:56:59;157.27;;;9.47;;
5630;SDS011;2837;50.990;7.124;2022-09-21T06:59:24;156.77;;;9.83;;
5630;SDS011;2837;50.990;7.124;2022-09-21T07:01:50;156.30;;;8.90;;
5630;SDS011;2837;50.990;7.124;2022-09-21T07:04:16;156.80;;;9.27;;
5630;SDS011;2837;50.990;7.124;2022-09-21T07:06:41;158.07;;;9.40;;
5630;SDS011;2837;50.990;7.124;2022-09-21T07:09:07;156.47;;;8.87;;
5630;SDS011;2837;50.990;7.124;2022-09-21T07:11:32;157.20;;;9.30;;
5630;SDS011;2837;50.990;7.124;2022-09-21T07:13:58;156.00;;;8.43;;
5630;SDS011;2837;50.990;7.124;2022-09-21T07:16:23;157.00;;;9.30;;
5630;SDS011;2837;50.990;7.124;2022-09-21T07:18:49;156.63;;;9.63;;
5630;SDS011;2837;50.990;7.124;2022-09-21T07:21:14;157.40;;;9.17;;
5630;SDS011;2837;50.990;7.124;2022-09-21T07:23:40;155.73;;;8.47;;
5630;SDS011;2837;50.990;7.124;2022-09-21T07:26:07;157.73;;;9.50;;
5630;SDS011;2837;50.990;7.124;2022-09-21T07:28:35;158.17;;;9.97;;
5630;SDS011;2837;50.990;7.124;2022-09-21T07:31:13;158.97;;;10.37;;
5630;SDS011;2837;50.990;7.124;2022-09-21T07:33:43;159.87;;;9.10;;
5630;SDS011;2837;50.990;7.124;2022-09-21T07:36:12;156.77;;;8.87;;
5630;SDS011;2837;50.990;7.124;2022-09-21T07:38:38;158.50;;;9.00;;
5630;SDS011;2837;50.990;7.124;2022-09-21T07:41:06;157.07;;;8.80;;
5630;SDS011;2837;50.990;7.124;2022-09-21T07:43:32;155.17;;;8.37;;
5630;SDS011;2837;50.990;7.124;2022-09-21T07:45:58;157.03;;;9.10;;
5630;SDS011;2837;50.990;7.124;2022-09-21T07:48:26;159.87;;;9.83;;
5630;SDS011;2837;50.990;7.124;2022-09-21T07:50:52;157.27;;;8.67;;
5630;SDS011;2837;50.990;7.124;2022-09-21T07:53:18;157.27;;;9.73;;
5630;SDS011;2837;50.990;7.124;2022-09-21T07:55:45;156.17;;;9.17;;
5630;SDS011;2837;50.990;7.124;2022-09-21T07:58:10;156.43;;;8.20;;
5630;SDS011;2837;50.990;7.124;2022-09-21T08:00:54;158.50;;;9.90;;
5630;SDS011;2837;50.990;7.124;2022-09-21T08:03:20;157.50;;;9.47;;
5630;SDS011;2837;50.990;7.124;2022-09-21T08:05:45;157.67;;;9.10;;
5630;SDS011;2837;50.990;7.124;2022-09-21T08:08:11;157.30;;;8.87;;
5630;SDS011;2837;50.990;7.124;2022-09-21T08:10:37;156.80;;;8.97;;
5630;SDS011;2837;50.990;7.124;2022-09-21T08:13:03;155.33;;;8.67;;
5630;SDS011;2837;50.990;7.124;2022-09-21T08:15:29;155.13;;;8.57;;
5630;SDS011;2837;50.990;7.124;2022-09-21T08:17:55;155.87;;;8.70;;
5630;SDS011;2837;50.990;7.124;2022-09-21T08:20:22;155.83;;;8.70;;
5630;SDS011;2837;50.990;7.124;2022-09-21T08:22:48;155.43;;;8.87;;
5630;SDS011;2837;50.990;7.124;2022-09-21T08:25:14;159.10;;;8.70;;
5630;SDS011;2837;50.990;7.124;2022-09-21T08:27:40;156.80;;;8.83;;
5630;SDS011;2837;50.990;7.124;2022-09-21T08:30:06;157.13;;;8.87;;
5630;SDS011;2837;50.990;7.124;2022-09-21T08:32:32;154.90;;;8.07;;
5630;SDS011;2837;50.990;7.124;2022-09-21T08:34:58;155.93;;;8.67;;
5630;SDS011;2837;50.990;7.124;2022-09-21T08:37:24;154.57;;;8.10;;
5630;SDS011;2837;50.990;7.124;2022-09-21T08:39:49;157.57;;;8.60;;
5630;SDS011;2837;50.990;7.124;2022-09-21T08:45:04;155.03;;;8.20;;
5630;SDS011;2837;50.990;7.124;2022-09-21T08:47:41;155.03;;;9.00;;
5630;SDS011;2837;50.990;7.124;2022-09-21T08:50:32;153.77;;;7.93;;
5630;SDS011;2837;50.990;7.124;2022-09-21T08:53:38;159.13;;;8.50;;
5630;SDS011;2837;50.990;7.124;2022-09-21T08:56:04;153.93;;;8.10;;
5630;SDS011;2837;50.990;7.124;2022-09-21T08:58:30;159.37;;;7.87;;
5630;SDS011;2837;50.990;7.124;2022-09-21T09:09:35;155.57;;;8.70;;
5630;SDS011;2837;50.990;7.124;2022-09-21T09:12:30;154.67;;;8.10;;
5630;SDS011;2837;50.990;7.124;2022-09-21T09:17:43;155.10;;;8.80;;
5630;SDS011;2837;50.990;7.124;2022-09-21T09:20:18;159.90;;;8.23;;
5630;SDS011;2837;50.990;7.124;2022-09-21T09:22:58;155.90;;;7.80;;
5630;SDS011;2837;50.990;7.124;2022-09-21T09:25:35;152.50;;;7.80;;
5630;SDS011;2837;50.990;7.124;2022-09-21T09:31:44;153.50;;;8.47;;
5630;SDS011;2837;50.990;7.124;2022-09-21T09:33:51;154.57;;;8.50;;
5630;SDS011;2837;50.990;7.124;2022-09-21T09:36:17;154.00;;;8.17;;
5630;SDS011;2837;50.990;7.124;2022-09-21T09:38:55;152.87;;;8.13;;
5630;SDS011;2837;50.990;7.124;2022-09-21T09:49:33;154.57;;;9.23;;
5630;SDS011;2837;50.990;7.124;2022-09-21T09:52:20;153.37;;;9.10;;
5630;SDS011;2837;50.990;7.124;2022-09-21T09:54:46;154.67;;;9.33;;
5630;SDS011;2837;50.990;7.124;2022-09-21T09:57:12;153.93;;;9.17;;
5630;SDS011;2837;50.990;7.124;2022-09-21T09:59:43;155.63;;;10.87;;
5630;SDS011;2837;50.990;7.124;2022-09-21T10:02:20;155.43;;;10.83;;
5630;SDS011;2837;50.990;7.124;2022-09-21T10:05:17;156.00;;;12.37;;
5630;SDS011;2837;50.990;7.124;2022-09-21T10:07:43;155.10;;;10.60;;
5630;SDS011;2837;50.990;7.124;2022-09-21T10:15:33;155.37;;;11.33;;
5630;SDS011;2837;50.990;7.124;2022-09-21T10:18:06;155.07;;;11.33;;
5630;SDS011;2837;50.990;7.124;2022-09-21T10:20:51;158.67;;;11.50;;
5630;SDS011;2837;50.990;7.124;2022-09-21T10:23:19;156.97;;;12.30;;
5630;SDS011;2837;50.990;7.124;2022-09-21T10:25:51;155.17;;;11.60;;
5630;SDS011;2837;50.990;7.124;2022-09-21T10:28:37;154.23;;;11.37;;
5630;SDS011;2837;50.990;7.124;2022-09-21T10:31:29;157.37;;;13.40;;
5630;SDS011;2837;50.990;7.124;2022-09-21T10:34:12;155.27;;;11.77;;
5630;SDS011;2837;50.990;7.124;2022-09-21T10:36:38;155.10;;;11.70;;
5630;SDS011;2837;50.990;7.124;2022-09-21T10:41:52;155.97;;;12.20;;
5630;SDS011;2837;50.990;7.124;2022-09-21T10:44:22;160.10;;;11.27;;
5630;SDS011;2837;50.990;7.124;2022-09-21T10:46:52;155.97;;;11.70;;
5630;SDS011;2837;50.990;7.124;2022-09-21T10:49:20;154.30;;;10.93;;
5630;SDS011;2837;50.990;7.124;2022-09-21T10:51:51;173.77;;;21.88;;
5630;SDS011;2837;50.990;7.124;2022-09-21T10:54:21;155.87;;;13.07;;
5630;SDS011;2837;50.990;7.124;2022-09-21T10:56:51;157.77;;;11.90;;
5630;SDS011;2837;50.990;7.124;2022-09-21T11:01:54;154.90;;;12.07;;
5630;SDS011;2837;50.990;7.124;2022-09-21T11:06:48;157.27;;;12.40;;
5630;SDS011;2837;50.990;7.124;2022-09-21T11:20:42;155.93;;;12.33;;
5630;SDS011;2837;50.990;7.124;2022-09-21T11:23:25;155.47;;;13.70;;
5630;SDS011;2837;50.990;7.124;2022-09-21T11:26:11;156.20;;;12.57;;
5630;SDS011;2837;50.990;7.124;2022-09-21T11:28:50;154.47;;;12.27;;
5630;SDS011;2837;50.990;7.124;2022-09-21T11:37:02;154.70;;;11.30;;
5630;SDS011;2837;50.990;7.124;2022-09-21T11:45:02;154.57;;;10.67;;
5630;SDS011;2837;50.990;7.124;2022-09-21T11:58:25;157.50;;;11.80;;
5630;SDS011;2837;50.990;7.124;2022-09-21T12:09:29;154.90;;;12.03;;
5630;SDS011;2837;50.990;7.124;2022-09-21T12:12:18;155.47;;;13.10;;
5630;SDS011;2837;50.990;7.124;2022-09-21T12:14:53;154.67;;;11.73;;
5630;SDS011;2837;50.990;7.124;2022-09-21T12:20:04;155.90;;;11.83;;
5630;SDS011;2837;50.990;7.124;2022-09-21T12:22:39;154.10;;;11.07;;
5630;SDS011;2837;50.990;7.124;2022-09-21T12:25:15;155.77;;;11.30;;
5630;SDS011;2837;50.990;7.124;2022-09-21T12:30:49;155.13;;;11.40;;
5630;SDS011;2837;50.990;7.124;2022-09-21T12:36:09;155.47;;;11.20;;
5630;SDS011;2837;50.990;7.124;2022-09-21T12:42:04;153.80;;;11.17;;
5630;SDS011;2837;50.990;7.124;2022-09-21T12:44:54;154.53;;;9.80;;
5630;SDS011;2837;50.990;7.124;2022-09-21T12:47:33;153.77;;;10.23;;
5630;SDS011;2837;50.990;7.124;2022-09-21T12:50:05;152.93;;;10.37;;
5630;SDS011;2837;50.990;7.124;2022-09-21T12:52:42;153.87;;;10.13;;
5630;SDS011;2837;50.990;7.124;2022-09-21T12:55:17;155.47;;;11.00;;
5630;SDS011;2837;50.990;7.124;2022-09-21T12:57:54;153.87;;;10.60;;
5630;SDS011;2837;50.990;7.124;2022-09-21T13:00:54;153.47;;;9.20;;
5630;SDS011;2837;50.990;7.124;2022-09-21T13:03:36;153.17;;;9.93;;
5630;SDS011;2837;50.990;7.124;2022-09-21T13:09:15;153.37;;;9.17;;
5630;SDS011;2837;50.990;7.124;2022-09-21T13:14:21;153.10;;;9.53;;
5630;SDS011;2837;50.990;7.124;2022-09-21T13:16:56;154.17;;;9.30;;
5630;SDS011;2837;50.990;7.124;2022-09-21T13:19:25;151.97;;;9.67;;
5630;SDS011;2837;50.990;7.124;2022-09-21T13:25:33;153.07;;;9.77;;
5630;SDS011;2837;50.990;7.124;2022-09-21T13:41:01;154.77;;;9.50;;
5630;SDS011;2837;50.990;7.124;2022-09-21T13:43:46;153.27;;;9.60;;
5630;SDS011;2837;50.990;7.124;2022-09-21T13:54:18;153.57;;;9.30;;
5630;SDS011;2837;50.990;7.124;2022-09-21T13:56:56;153.47;;;9.40;;
5630;SDS011;2837;50.990;7.124;2022-09-21T13:59:41;153.70;;;9.50;;
5630;SDS011;2837;50.990;7.124;2022-09-21T14:02:20;154.07;;;9.87;;
5630;SDS011;2837;50.990;7.124;2022-09-21T14:05:05;152.83;;;9.00;;
5630;SDS011;2837;50.990;7.124;2022-09-21T14:07:41;151.30;;;8.30;;
5630;SDS011;2837;50.990;7.124;2022-09-21T14:10:07;153.07;;;8.67;;
5630;SDS011;2837;50.990;7.124;2022-09-21T14:12:37;152.70;;;9.97;;
5630;SDS011;2837;50.990;7.124;2022-09-21T14:17:41;155.17;;;9.70;;
5630;SDS011;2837;50.990;7.124;2022-09-21T14:20:24;152.27;;;9.70;;
5630;SDS011;2837;50.990;7.124;2022-09-21T14:23:09;152.90;;;9.70;;
5630;SDS011;2837;50.990;7.124;2022-09-21T14:25:50;153.63;;;8.83;;
5630;SDS011;2837;50.990;7.124;2022-09-21T14:28:25;151.90;;;9.03;;
5630;SDS011;2837;50.990;7.124;2022-09-21T14:30:56;153.20;;;9.70;;
5630;SDS011;2837;50.990;7.124;2022-09-21T14:33:27;153.77;;;9.50;;
5630;SDS011;2837;50.990;7.124;2022-09-21T14:35:57;151.47;;;8.37;;
5630;SDS011;2837;50.990;7.124;2022-09-21T14:38:27;153.27;;;9.87;;
5630;SDS011;2837;50.990;7.124;2022-09-21T14:41:00;152.67;;;9.13;;
5630;SDS011;2837;50.990;7.124;2022-09-21T14:43:31;153.60;;;9.37;;
5630;SDS011;2837;50.990;7.124;2022-09-21T14:54:39;153.17;;;9.70;;
5630;SDS011;2837;50.990;7.124;2022-09-21T15:02:23;153.37;;;9.23;;
5630;SDS011;2837;50.990;7.124;2022-09-21T15:07:51;152.53;;;9.50;;
5630;SDS011;2837;50.990;7.124;2022-09-21T15:16:41;154.20;;;9.77;;
5630;SDS011;2837;50.990;7.124;2022-09-21T15:19:28;152.70;;;9.10;;
5630;SDS011;2837;50.990;7.124;2022-09-21T15:22:15;154.37;;;9.57;;
5630;SDS011;2837;50.990;7.124;2022-09-21T15:24:55;154.80;;;9.80;;
5630;SDS011;2837;50.990;7.124;2022-09-21T15:27:24;152.77;;;9.20;;
5630;SDS011;2837;50.990;7.124;2022-09-21T15:29:57;153.90;;;9.20;;
5630;SDS011;2837;50.990;7.124;2022-09-21T15:32:42;152.80;;;9.33;;
5630;SDS011;2837;50.990;7.124;2022-09-21T15:35:26;155.83;;;9.80;;
5630;SDS011;2837;50.990;7.124;2022-09-21T15:37:56;153.77;;;10.00;;
5630;SDS011;2837;50.990;7.124;2022-09-21T15:40:35;158.93;;;9.90;;
5630;SDS011;2837;50.990;7.124;2022-09-21T15:45:43;152.43;;;9.50;;
5630;SDS011;2837;50.990;7.124;2022-09-21T15:48:10;154.07;;;10.30;;
5630;SDS011;2837;50.990;7.124;2022-09-21T15:50:36;152.20;;;9.33;;
5630;SDS011;2837;50.990;7.124;2022-09-21T15:53:04;151.77;;;9.20;;
5630;SDS011;2837;50.990;7.124;2022-09-21T15:55:36;152.63;;;9.20;;
5630;SDS011;2837;50.990;7.124;2022-09-21T15:58:02;157.07;;;9.40;;
5630;SDS011;2837;50.990;7.124;2022-09-21T16:00:48;154.03;;;10.50;;
5630;SDS011;2837;50.990;7.124;2022-09-21T16:03:20;152.97;;;10.03;;
5630;SDS011;2837;50.990;7.124;2022-09-21T16:05:48;159.00;;;10.27;;
5630;SDS011;2837;50.990;7.124;2022-09-21T16:08:20;154.60;;;10.30;;
5630;SDS011;2837;50.990;7.124;2022-09-21T16:13:57;153.53;;;9.47;;
5630;SDS011;2837;50.990;7.124;2022-09-21T16:22:39;152.57;;;10.40;;
5630;SDS011;2837;50.990;7.124;2022-09-21T16:25:28;153.00;;;10.47;;
5630;SDS011;2837;50.990;7.124;2022-09-21T16:27:57;154.47;;;10.73;;
5630;SDS011;2837;50.990;7.124;2022-09-21T16:35:58;153.17;;;9.53;;
5630;SDS011;2837;50.990;7.124;2022-09-21T16:38:24;153.67;;;10.10;;
5630;SDS011;2837;50.990;7.124;2022-09-21T16:40:50;156.57;;;10.37;;
5630;SDS011;2837;50.990;7.124;2022-09-21T16:43:17;153.40;;;11.40;;
5630;SDS011;2837;50.990;7.124;2022-09-21T16:45:44;153.80;;;10.50;;
5630;SDS011;2837;50.990;7.124;2022-09-21T16:48:11;153.27;;;9.87;;
5630;SDS011;2837;50.990;7.124;2022-09-21T16:50:37;152.83;;;10.23;;
5630;SDS011;2837;50.990;7.124;2022-09-21T16:53:03;153.87;;;10.37;;
5630;SDS011;2837;50.990;7.124;2022-09-21T16:55:29;154.37;;;10.40;;
5630;SDS011;2837;50.990;7.124;2022-09-21T16:57:54;153.30;;;10.60;;
5630;SDS011;2837;50.990;7.124;2022-09-21T17:00:21;153.13;;;10.27;;
5630;SDS011;2837;50.990;7.124;2022-09-21T17:02:47;152.87;;;10.00;;
5630;SDS011;2837;50.990;7.124;2022-09-21T17:05:13;153.77;;;10.47;;
5630;SDS011;2837;50.990;7.124;2022-09-21T17:07:46;153.97;;;10.47;;
5630;SDS011;2837;50.990;7.124;2022-09-21T17:10:17;152.40;;;9.20;;
5630;SDS011;2837;50.990;7.124;2022-09-21T17:12:44;152.67;;;9.43;;
5630;SDS011;2837;50.990;7.124;2022-09-21T17:15:13;153.90;;;8.93;;
5630;SDS011;2837;50.990;7.124;2022-09-21T17:17:39;152.60;;;9.17;;
5630;SDS011;2837;50.990;7.124;2022-09-21T17:20:12;152.47;;;8.60;;
5630;SDS011;2837;50.990;7.124;2022-09-21T17:22:52;154.63;;;10.00;;
5630;SDS011;2837;50.990;7.124;2022-09-21T17:25:18;154.30;;;9.30;;
5630;SDS011;2837;50.990;7.124;2022-09-21T17:27:43;154.27;;;9.70;;
5630;SDS011;2837;50.990;7.124;2022-09-21T17:30:10;153.77;;;9.57;;
5630;SDS011;2837;50.990;7.124;2022-09-21T17:32:37;154.97;;;9.53;;
5630;SDS011;2837;50.990;7.124;2022-09-21T17:35:12;154.87;;;10.00;;
5630;SDS011;2837;50.990;7.124;2022-09-21T17:38:00;162.00;;;10.83;;
5630;SDS011;2837;50.990;7.124;2022-09-21T17:40:26;153.70;;;9.47;;
5630;SDS011;2837;50.990;7.124;2022-09-21T17:42:55;153.47;;;9.77;;
5630;SDS011;2837;50.990;7.124;2022-09-21T17:45:51;155.50;;;9.80;;
5630;SDS011;2837;50.990;7.124;2022-09-21T17:48:56;155.70;;;9.57;;
5630;SDS011;2837;50.990;7.124;2022-09-21T17:51:21;155.37;;;11.27;;
5630;SDS011;2837;50.990;7.124;2022-09-21T17:54:06;154.67;;;11.13;;
5630;SDS011;2837;50.990;7.124;2022-09-21T17:56:50;154.70;;;10.67;;
5630;SDS011;2837;50.990;7.124;2022-09-21T17:59:32;155.00;;;11.10;;
5630;SDS011;2837;50.990;7.124;2022-09-21T18:01:59;155.30;;;11.50;;
5630;SDS011;2837;50.990;7.124;2022-09-21T18:04:29;162.30;;;13.57;;
5630;SDS011;2837;50.990;7.124;2022-09-21T18:06:58;157.90;;;12.97;;
5630;SDS011;2837;50.990;7.124;2022-09-21T18:09:24;157.07;;;12.97;;
5630;SDS011;2837;50.990;7.124;2022-09-21T18:11:55;156.80;;;13.27;;
5630;SDS011;2837;50.990;7.124;2022-09-21T18:17:36;157.57;;;13.90;;
5630;SDS011;2837;50.990;7.124;2022-09-21T18:23:03;159.97;;;13.20;;
5630;SDS011;2837;50.990;7.124;2022-09-21T18:25:43;158.63;;;12.87;;
5630;SDS011;2837;50.990;7.124;2022-09-21T18:30:49;161.90;;;13.07;;
5630;SDS011;2837;50.990;7.124;2022-09-21T18:38:41;156.50;;;13.20;;
5630;SDS011;2837;50.990;7.124;2022-09-21T18:50:00;156.77;;;11.33;;
5630;SDS011;2837;50.990;7.124;2022-09-21T18:52:40;155.73;;;12.13;;
5630;SDS011;2837;50.990;7.124;2022-09-21T18:55:15;156.37;;;12.00;;
5630;SDS011;2837;50.990;7.124;2022-09-21T18:57:54;155.73;;;10.77;;
5630;SDS011;2837;50.990;7.124;2022-09-21T19:00:22;156.93;;;12.20;;
5630;SDS011;2837;50.990;7.124;2022-09-21T19:02:49;155.47;;;11.50;;
5630;SDS011;2837;50.990;7.124;2022-09-21T19:05:15;159.67;;;12.90;;
5630;SDS011;2837;50.990;7.124;2022-09-21T19:07:49;155.47;;;9.93;;
5630;SDS011;2837;50.990;7.124;2022-09-21T19:10:38;155.53;;;10.20;;
5630;SDS011;2837;50.990;7.124;2022-09-21T19:18:32;156.90;;;11.00;;
5630;SDS011;2837;50.990;7.124;2022-09-21T19:23:57;157.57;;;11.27;;
5630;SDS011;2837;50.990;7.124;2022-09-21T19:31:54;156.27;;;11.03;;
5630;SDS011;2837;50.990;7.124;2022-09-21T19:34:19;156.77;;;10.50;;
5630;SDS011;2837;50.990;7.124;2022-09-21T19:36:45;156.77;;;10.50;;
5630;SDS011;2837;50.990;7.124;2022-09-21T19:39:11;159.23;;;13.27;;
5630;SDS011;2837;50.990;7.124;2022-09-21T19:42:02;162.00;;;11.13;;
5630;SDS011;2837;50.990;7.124;2022-09-21T19:47:29;162.20;;;11.27;;
5630;SDS011;2837;50.990;7.124;2022-09-21T19:50:00;156.90;;;10.20;;
5630;SDS011;2837;50.990;7.124;2022-09-21T19:52:36;157.37;;;11.10;;
5630;SDS011;2837;50.990;7.124;2022-09-21T19:55:02;155.50;;;10.00;;
5630;SDS011;2837;50.990;7.124;2022-09-21T19:57:48;155.20;;;9.20;;
5630;SDS011;2837;50.990;7.124;2022-09-21T20:00:33;156.17;;;10.00;;
5630;SDS011;2837;50.990;7.124;2022-09-21T20:03:01;155.30;;;9.10;;
5630;SDS011;2837;50.990;7.124;2022-09-21T20:08:20;154.80;;;9.57;;
5630;SDS011;2837;50.990;7.124;2022-09-21T20:14:19;156.77;;;10.20;;
5630;SDS011;2837;50.990;7.124;2022-09-21T20:16:57;156.77;;;10.50;;
5630;SDS011;2837;50.990;7.124;2022-09-21T20:19:42;155.83;;;10.20;;
5630;SDS011;2837;50.990;7.124;2022-09-21T20:22:21;155.87;;;9.97;;
5630;SDS011;2837;50.990;7.124;2022-09-21T20:25:19;153.93;;;9.20;;
5630;SDS011;2837;50.990;7.124;2022-09-21T20:28:09;156.90;;;8.70;;
5630;SDS011;2837;50.990;7.124;2022-09-21T20:30:35;155.83;;;9.03;;
5630;SDS011;2837;50.990;7.124;2022-09-21T20:33:14;154.00;;;9.00;;
5630;SDS011;2837;50.990;7.124;2022-09-21T20:35:42;155.30;;;8.87;;
5630;SDS011;2837;50.990;7.124;2022-09-21T20:38:08;153.33;;;8.10;;
5630;SDS011;2837;50.990;7.124;2022-09-21T20:40:34;155.10;;;8.20;;
5630;SDS011;2837;50.990;7.124;2022-09-21T20:43:00;153.53;;;8.20;;
5630;SDS011;2837;50.990;7.124;2022-09-21T20:45:26;155.37;;;8.33;;
5630;SDS011;2837;50.990;7.124;2022-09-21T20:47:52;154.50;;;8.80;;
5630;SDS011;2837;50.990;7.124;2022-09-21T20:50:19;154.77;;;9.10;;
5630;SDS011;2837;50.990;7.124;2022-09-21T20:52:45;153.47;;;8.87;;
5630;SDS011;2837;50.990;7.124;2022-09-21T20:55:12;154.27;;;8.97;;
5630;SDS011;2837;50.990;7.124;2022-09-21T20:57:41;154.63;;;8.57;;
